EW9023 Hermosillo current weather conditions

sailwx.info

Air temperature 21.7° C
Dewpoint 15.7° C

Last reported at 2020-May-31 13:01 UTC.
Time now 2020-May-31 13:54 UTC

Location: N 28°36' W 111°22'.
View on Google Maps.

See reports from other nearby stations

  
Tides and Currents Weather Stations Pressure Air Temp Water Temp Dewpoint Dewpoint Depression Visibility Wind Speed Wind Dir Waves Ship Positions
date/time (UTC)wind fromknots sea level pressurealtimeterstation pressurevisibilityair tempwater tempwave heightnotes
2020-May-31 13:01 21.7
2020-May-31 12:51 135 1 gusting 1 21.7
2020-May-31 12:41 21.1
2020-May-31 12:31 21.7
2020-May-31 12:21 21.7
2020-May-31 12:11 21.7
2020-May-31 12:01 21.7
2020-May-31 11:51 21.7
2020-May-31 11:41 21.7
2020-May-31 11:31 21.7
2020-May-31 11:21 22.2
2020-May-31 11:11 22.2
2020-May-31 11:01 22.2
2020-May-31 10:51 22.2
2020-May-31 10:41 22.8
2020-May-31 10:31 135 0 gusting 0 23.3
2020-May-31 10:21 23.3
2020-May-31 10:11 23.3
2020-May-31 10:01 135 2 gusting 2 23.3
2020-May-31 09:51 135 3 gusting 4 22.8
2020-May-31 09:41 22.8
2020-May-31 09:31 22.8
2020-May-31 09:21 135 0 gusting 0 23.3
2020-May-31 09:11 135 2 gusting 2 23.3
2020-May-31 09:01 157 1 gusting 2 23.3
2020-May-31 08:51 157 2 gusting 2 22.8
2020-May-31 08:41 22.8
2020-May-31 08:31 112 0 gusting 1 22.8
2020-May-31 08:21 23.3
2020-May-31 08:11 23.3
2020-May-31 08:01 112 1 gusting 2 23.3
2020-May-31 07:51 157 0 gusting 1 24.4
2020-May-31 07:41 157 1 gusting 1 24.4
2020-May-31 07:31 23.9
2020-May-31 07:21 23.9
2020-May-31 07:11 23.9
2020-May-31 07:01 23.9
2020-May-31 06:51 157 0 gusting 1 24.4
2020-May-31 06:41 157 0 gusting 2 25.0
2020-May-31 06:31 157 1 gusting 2 25.6
2020-May-31 06:21 180 1 gusting 1 25.6
2020-May-31 06:11 180 0 gusting 1 26.1
2020-May-31 06:02 180 3 gusting 4 26.1
2020-May-31 05:51 180 1 gusting 2 26.1
2020-May-31 05:41 180 1 gusting 1 26.1
2020-May-31 05:31 180 1 gusting 2 26.1
2020-May-31 05:21 180 0 gusting 1 26.1
2020-May-31 05:11 180 0 gusting 1 26.1
2020-May-31 05:01 26.7
2020-May-31 04:51 180 1 gusting 2 26.7
2020-May-31 04:41 180 0 gusting 1 27.2
2020-May-31 04:31 180 1 gusting 1 27.2
2020-May-31 04:21 180 0 gusting 1 27.2
2020-May-31 04:11 157 3 gusting 4 27.2
2020-May-31 04:01 180 2 gusting 3 27.8
2020-May-31 03:51 157 3 gusting 4 27.8
2020-May-31 03:41 157 3 gusting 4 27.8
2020-May-31 03:31 157 3 gusting 4 28.3
2020-May-31 03:21 180 4 gusting 6 28.3
2020-May-31 03:11 202 4 gusting 5 28.9
2020-May-31 03:01 202 6 gusting 7 28.9
2020-May-31 02:51 202 5 gusting 6 29.4
2020-May-31 02:41 202 6 gusting 7 29.4
2020-May-31 02:31 202 6 gusting 8 30.0
2020-May-31 02:21 202 6 gusting 7 30.6
2020-May-31 02:11 202 5 gusting 6 30.6
2020-May-31 02:01 202 5 gusting 6 31.1
2020-May-31 01:51 180 6 gusting 8 31.1
2020-May-31 01:41 202 7 gusting 9 31.7
2020-May-31 01:31 202 6 gusting 8 32.2
2020-May-31 01:21 180 7 gusting 9 32.2
2020-May-31 01:11 202 7 gusting 9 32.8
2020-May-31 01:01 202 8 gusting 9 33.3
2020-May-31 00:51 202 7 gusting 8 33.3
2020-May-31 00:41 180 9 gusting 11 33.9
2020-May-31 00:31 202 8 gusting 10 33.9
2020-May-31 00:21 202 9 gusting 11 34.4
2020-May-31 00:11 225 8 gusting 11 35.0
2020-May-31 00:01 202 9 gusting 13 35.0
2020-May-30 23:51 202 11 gusting 13 35.0
2020-May-30 23:41 202 10 gusting 12 35.6
2020-May-30 23:31 202 11 gusting 13 35.6
2020-May-30 23:21 202 11 gusting 13 35.6
2020-May-30 23:11 202 11 gusting 13 35.6
2020-May-30 23:01 180 11 gusting 13 35.6
2020-May-30 22:51 180 13 gusting 15 35.6
2020-May-30 22:41 202 11 gusting 13 35.6
2020-May-30 22:31 180 11 gusting 13 35.6
2020-May-30 22:21 202 13 gusting 14 35.6
2020-May-30 22:11 180 13 gusting 15 36.1
2020-May-30 22:01 180 13 gusting 15 35.6
2020-May-30 21:51 202 13 gusting 15 35.6
2020-May-30 21:41 225 13 gusting 14 36.1
2020-May-30 21:31 180 12 gusting 16 35.6
2020-May-30 21:21 225 11 gusting 14 35.6
2020-May-30 21:11 202 9 gusting 12 36.1
2020-May-30 21:01 202 11 gusting 17 35.6
2020-May-30 20:51 180 13 gusting 15 35.6
2020-May-30 20:41 202 12 gusting 16 35.6
2020-May-30 20:31 180 12 gusting 15 35.6
2020-May-30 20:21 202 10 gusting 12 35.6
2020-May-30 20:11 202 11 gusting 13 35.6
2020-May-30 20:01 202 9 gusting 13 36.1
2020-May-30 19:51 202 9 gusting 12 36.1
2020-May-30 19:41 202 6 gusting 8 36.7
2020-May-30 19:31 180 10 gusting 12 36.7
2020-May-30 19:21 225 8 gusting 9 36.1
2020-May-30 19:11 225 11 gusting 13 36.1
2020-May-30 19:01 225 6 gusting 7 35.6
2020-May-30 18:51 202 7 gusting 10 35.6
2020-May-30 18:41 202 9 gusting 12 35.6
2020-May-30 18:31 202 7 gusting 10 35.6
2020-May-30 18:21 180 8 gusting 11 35.6
2020-May-30 18:11 225 3 gusting 6 36.1
2020-May-30 18:01 157 1 gusting 4 36.1
2020-May-30 17:51 067 0 gusting 4 35.6
2020-May-30 17:41 225 1 gusting 5 35.6
2020-May-30 17:31 180 5 gusting 6 35.0
2020-May-30 17:21 180 3 gusting 6 34.4
2020-May-30 17:11 34.4
2020-May-30 17:01 157 2 gusting 3 33.9
2020-May-30 16:51 135 1 gusting 3 33.3
2020-May-30 16:41 157 1 gusting 2 32.8
2020-May-30 16:31 135 2 gusting 5 32.8
2020-May-30 16:21 157 2 gusting 3 32.2
2020-May-30 16:11 225 0 gusting 2 31.7
2020-May-30 16:01 202 0 gusting 2 31.1
2020-May-30 15:51 180 2 gusting 4 31.1
2020-May-30 15:41 180 1 gusting 2 30.6
2020-May-30 15:31 30.6
2020-May-30 15:21 30.0
2020-May-30 15:11 022 0 gusting 1 30.0
2020-May-30 15:01 022 1 gusting 2 29.4
2020-May-30 14:51 28.9
2020-May-30 14:41 022 1 gusting 2 28.3
2020-May-30 14:31 27.8
2020-May-30 14:21 27.2
2020-May-30 14:11 022 1 gusting 2 26.1
2020-May-30 14:01 022 1 gusting 2 25.6
2020-May-30 13:51 022 2 gusting 3 25.0
2020-May-30 13:41 022 3 gusting 4 24.4
2020-May-30 13:31 022 2 gusting 3 23.9
2020-May-30 13:21 022 2 gusting 3 22.8
2020-May-30 13:11 045 2 gusting 2 22.2
2020-May-30 13:01 21.7
2020-May-30 12:51 21.1
2020-May-30 12:41 21.1
2020-May-30 12:31 21.1
2020-May-30 12:21 045 0 gusting 0 21.1
2020-May-30 12:11 21.1
2020-May-30 12:01 045 0 gusting 1 21.1
2020-May-30 11:51 045 0 gusting 1 21.1
2020-May-30 11:41 21.7
2020-May-30 11:21 045 0 gusting 1 21.7
2020-May-30 11:11 21.7
2020-May-30 11:01 21.7
2020-May-30 10:51 21.7
2020-May-30 10:41 045 0 gusting 1 21.7
2020-May-30 10:31 22.2
2020-May-30 10:21 045 2 gusting 2 22.2
2020-May-30 10:12 045 0 gusting 0 22.2
2020-May-30 10:01 045 2 gusting 3 22.2
2020-May-30 09:51 21.7
2020-May-30 09:41 22.2
2020-May-30 09:31 22.2
2020-May-30 09:21 22.8
2020-May-30 09:11 22.8
2020-May-30 09:02 22.8
2020-May-30 08:51 067 1 gusting 1 22.2
2020-May-30 08:41 067 1 gusting 1 22.2
2020-May-30 08:31 067 2 gusting 2 22.8
2020-May-30 08:23 22.8
2020-May-30 08:11 022 0 gusting 0 23.3
2020-May-30 08:01 022 1 gusting 2 23.3
2020-May-30 07:51 23.3
2020-May-30 07:41 23.3
2020-May-30 07:31 23.3
2020-May-30 07:21 022 0 gusting 0 23.9
2020-May-30 07:11 292 1 gusting 2 23.9
2020-May-30 07:01 247 1 gusting 2 24.4
2020-May-30 06:51 247 3 gusting 3 23.9
2020-May-30 06:41 247 1 gusting 2 24.4
2020-May-30 06:31 247 3 gusting 4 25.0
2020-May-30 06:21 247 1 gusting 1 24.4
2020-May-30 06:11 022 2 gusting 2 24.4
2020-May-30 06:01 292 1 gusting 2 25.0
2020-May-30 05:51 292 2 gusting 3 25.6
2020-May-30 05:41 180 2 gusting 3 25.6
2020-May-30 05:31 157 2 gusting 3 25.6
2020-May-30 05:21 157 0 gusting 1 26.1
2020-May-30 05:11 157 1 gusting 1 26.1
2020-May-30 05:01 157 0 gusting 1 26.7
2020-May-30 04:51 225 2 gusting 3 26.7
2020-May-30 04:41 225 2 gusting 3 26.1
2020-May-30 04:31 225 3 gusting 5 26.7
2020-May-30 04:21 202 2 gusting 3 26.7
2020-May-30 04:11 26.1
2020-May-30 03:51 112 2 gusting 3 26.7
2020-May-30 03:41 27.2
2020-May-30 03:31 157 1 gusting 2 27.8
2020-May-30 03:21 157 3 gusting 4 27.8
2020-May-30 03:11 180 3 gusting 4 27.8
2020-May-30 03:01 180 5 gusting 6 28.3
2020-May-30 02:51 157 5 gusting 6 28.3
2020-May-30 02:41 157 4 gusting 5 28.3
2020-May-30 02:31 157 6 gusting 7 28.9
2020-May-30 02:21 157 4 gusting 6 29.4
2020-May-30 02:11 157 6 gusting 7 29.4
2020-May-30 02:01 157 5 gusting 7 30.0
2020-May-30 01:51 180 6 gusting 6 30.6
2020-May-30 01:41 180 6 gusting 7 30.6
2020-May-30 01:31 202 4 gusting 6 31.1
2020-May-30 01:21 202 6 gusting 8 31.1
2020-May-30 01:11 180 6 gusting 9 31.7
2020-May-30 01:01 202 8 gusting 10 31.7
2020-May-30 00:51 225 9 gusting 11 32.2
2020-May-30 00:41 202 9 gusting 10 32.2
2020-May-30 00:31 202 9 gusting 11 32.8
2020-May-30 00:21 225 8 gusting 10 32.8
2020-May-30 00:11 202 9 gusting 11 33.3
2020-May-30 00:01 202 8 gusting 10 33.3
2020-May-29 23:51 202 10 gusting 13 33.9
2020-May-29 23:41 225 9 gusting 12 33.9
2020-May-29 23:31 202 9 gusting 11 33.3
2020-May-29 23:21 202 10 gusting 12 33.9
2020-May-29 23:11 202 7 gusting 10 33.9
2020-May-29 23:01 202 9 gusting 12 34.4
2020-May-29 22:51 202 11 gusting 13 33.9
2020-May-29 22:41 225 10 gusting 13 33.9
2020-May-29 22:31 202 9 gusting 12 33.9
2020-May-29 22:21 225 9 gusting 12 33.9
2020-May-29 22:11 225 11 gusting 13 33.9
2020-May-29 22:01 225 10 gusting 13 33.9
2020-May-29 21:51 202 10 gusting 13 33.9
2020-May-29 21:41 180 12 gusting 14 33.9
2020-May-29 21:31 225 13 gusting 16 33.9
2020-May-29 21:21 202 9 gusting 12 34.4
2020-May-29 21:11 202 12 gusting 14 34.4
2020-May-29 21:01 202 12 gusting 16 35.0
2020-May-29 20:51 225 10 gusting 19 34.4
2020-May-29 20:41 225 10 gusting 12 35.6
2020-May-29 20:31 225 10 gusting 12 34.4
2020-May-29 20:21 202 11 gusting 13 35.0
2020-May-29 20:11 202 11 gusting 13 35.0
2020-May-29 20:01 225 11 gusting 15 35.0
2020-May-29 19:51 202 11 gusting 13 35.0
2020-May-29 19:41 202 10 gusting 14 35.6
2020-May-29 19:31 225 9 gusting 13 35.0
2020-May-29 19:21 202 9 gusting 12 35.6
2020-May-29 19:11 225 10 gusting 11 35.0
2020-May-29 19:01 247 6 gusting 7 35.0
2020-May-29 18:51 225 10 gusting 12 35.0
2020-May-29 18:41 202 1 gusting 4 35.0
2020-May-29 18:31 157 2 gusting 4 35.0
2020-May-29 18:21 35.0
2020-May-29 18:11 157 1 gusting 2 34.4
2020-May-29 18:01 34.4
2020-May-29 17:51 202 4 gusting 5 34.4
2020-May-29 17:41 225 4 gusting 6 33.9
2020-May-29 17:31 180 6 gusting 8 33.3
2020-May-29 17:21 247 1 gusting 3 33.3
2020-May-29 17:11 157 4 gusting 6 32.8
2020-May-29 17:01 157 2 gusting 4 32.8
2020-May-29 16:51 225 3 gusting 6 32.2
2020-May-29 16:41 31.7
2020-May-29 16:31 247 0 gusting 1 31.7
2020-May-29 16:21 202 1 gusting 2 31.1
2020-May-29 16:11 31.1
2020-May-29 16:01 112 2 gusting 3 30.6
2020-May-29 15:51 090 2 gusting 3 30.6
2020-May-29 15:41 112 2 gusting 3 30.0
2020-May-29 15:31
2020-May-29 15:00 112 4 gusting 5 28.3
2020-May-29 14:57 112 5 gusting 6 28.3
2020-May-29 14:47 112 4 gusting 5 27.8
2020-May-29 14:37 090 5 gusting 6 27.8
2020-May-29 14:27 090 3 gusting 5 27.2
2020-May-29 14:17 090 5 gusting 6 26.7
2020-May-29 14:07 067 4 gusting 6 26.1
2020-May-29 13:57 067 1 gusting 2 25.0
2020-May-29 13:47 067 1 gusting 2 23.9
2020-May-29 13:37 067 2 gusting 3 23.3
2020-May-29 13:27 067 2 gusting 3 22.2
2020-May-29 13:17 067 1 gusting 2 21.7
2020-May-29 13:07 067 1 gusting 2 21.7